Time;durP1;ratioP1;P1;durP2;ratioP2;P2;SDS_P1;SDS_P2;PMS_P1;PMS_P2;Temp;Humidity;BMP_temperature;BMP_pressure;BME280_temperature;BME280_humidity;BME280_pressure;Samples;Min_cycle;Max_cycle;Signal;HPM_P1;HPM_P2
2020/12/22 00:02:24;;;;;;;8.98;3.80;;;;;;;24.06;57.94;100255.09;5109806;28;20032;-59
2020/12/22 00:04:49;;;;;;;9.15;4.25;;;;;;;24.04;57.92;100254.31;5109773;28;20050;-58
2020/12/22 00:07:14;;;;;;;8.80;3.90;;;;;;;24.03;58.00;100257.03;5108793;28;20473;-59
2020/12/22 00:09:40;;;;;;;9.70;4.32;;;;;;;24.02;58.11;100258.84;5109766;28;20019;-59
2020/12/22 00:12:15;;;;;;;8.50;4.30;;;;;;;24.01;57.98;100257.09;5109833;28;20024;-59
2020/12/22 00:14:42;;;;;;;7.90;4.10;;;;;;;23.99;57.76;100256.31;5109250;28;20024;-59
2020/12/22 00:17:07;;;;;;;9.82;4.35;;;;;;;23.98;58.02;100254.56;5108969;28;20024;-59
2020/12/22 00:19:33;;;;;;;8.38;4.22;;;;;;;23.98;57.85;100257.22;5109135;28;20081;-59
2020/12/22 00:21:58;;;;;;;9.18;4.30;;;;;;;23.97;57.73;100258.16;5108553;28;20039;-59
2020/12/22 00:24:23;;;;;;;8.45;4.10;;;;;;;23.95;57.90;100260.03;5109513;28;20488;-59
2020/12/22 00:26:49;;;;;;;7.90;3.80;;;;;;;23.95;57.90;100260.03;5109361;28;20019;-59
2020/12/22 00:29:15;;;;;;;7.78;3.88;;;;;;;23.94;57.76;100263.63;5108958;28;20482;-59
2020/12/22 00:31:40;;;;;;;8.18;4.05;;;;;;;23.93;57.89;100259.25;5108761;28;20051;-59
2020/12/22 00:34:06;;;;;;;9.13;3.95;;;;;;;23.92;57.90;100261.06;5109174;28;20072;-59
2020/12/22 00:36:31;;;;;;;9.95;4.70;;;;;;;23.93;57.77;100268.09;5109073;28;20031;-59
2020/12/22 00:38:57;;;;;;;8.32;4.00;;;;;;;23.89;57.93;100266.50;5109128;28;20028;-59
2020/12/22 00:41:22;;;;;;;8.85;4.20;;;;;;;23.89;58.04;100270.97;5108845;28;20073;-58
2020/12/22 00:43:48;;;;;;;10.45;4.20;;;;;;;23.88;58.02;100271.88;5108928;28;20305;-58
2020/12/22 00:46:16;;;;;;;9.43;4.35;;;;;;;23.88;57.86;100269.22;5108261;28;20089;-59
2020/12/22 00:48:46;;;;;;;8.02;3.95;;;;;;;23.85;58.02;100267.56;5109005;28;20099;-59
2020/12/22 00:51:13;;;;;;;10.70;4.10;;;;;;;23.85;57.75;100274.69;5108744;28;20051;-58
2020/12/22 00:53:41;;;;;;;9.43;4.05;;;;;;;23.85;57.93;100270.22;5098887;28;20038;-59
2020/12/22 00:56:10;;;;;;;9.35;3.90;;;;;;;23.84;57.85;100273.81;5094937;28;20067;-59
2020/12/22 00:58:35;;;;;;;7.85;4.10;;;;;;;23.83;58.01;100272.09;5095195;28;20089;-59
2020/12/22 01:01:01;;;;;;;8.15;3.92;;;;;;;23.84;57.99;100267.63;5094839;28;20412;-59
2020/12/22 01:03:26;;;;;;;10.88;4.63;;;;;;;23.83;57.73;100265.94;5076935;28;20486;-59
2020/12/22 01:05:54;;;;;;;10.88;4.25;;;;;;;23.83;57.90;100265.94;5095113;28;20535;-59
2020/12/22 01:08:19;;;;;;;9.43;4.40;;;;;;;23.82;58.01;100273.03;5094854;28;20020;-59
2020/12/22 01:10:45;;;;;;;9.13;4.25;;;;;;;23.81;57.83;100268.66;5094854;28;20428;-59
2020/12/22 01:13:10;;;;;;;11.07;4.43;;;;;;;23.81;57.66;100267.75;5076784;28;20474;-59
2020/12/22 01:15:35;;;;;;;8.07;4.00;;;;;;;23.80;57.98;100263.38;5093946;28;20023;-59
2020/12/22 01:18:01;;;;;;;9.38;4.05;;;;;;;23.78;57.79;100258.97;5094761;28;20073;-59
2020/12/22 01:20:26;;;;;;;8.07;3.92;;;;;;;23.77;57.85;100257.22;5094986;28;20020;-59
2020/12/22 01:22:52;;;;;;;8.75;3.97;;;;;;;23.76;58.00;100251.97;5094543;28;20086;-59
2020/12/22 01:25:17;;;;;;;9.30;4.78;;;;;;;23.76;57.64;100247.50;5094283;28;20401;-59
2020/12/22 01:27:43;;;;;;;8.50;4.43;;;;;;;23.75;57.90;100243.13;5094965;28;20020;-59
2020/12/22 01:30:08;;;;;;;10.52;4.20;;;;;;;23.74;57.93;100240.53;5094187;28;20086;-59
2020/12/22 01:32:33;;;;;;;8.57;4.32;;;;;;;23.74;57.68;100241.38;5094374;28;20020;-59
2020/12/22 01:34:59;;;;;;;10.10;4.30;;;;;;;23.72;57.66;100232.63;5094855;28;20024;-59
2020/12/22 01:37:24;;;;;;;8.30;4.40;;;;;;;23.73;57.82;100228.16;5093992;28;20028;-59
2020/12/22 01:39:50;;;;;;;9.40;4.40;;;;;;;23.71;57.84;100233.56;5094664;28;20020;-59
2020/12/22 01:42:15;;;;;;;8.75;4.30;;;;;;;23.70;57.66;100239.81;5093935;28;20382;-59
2020/12/22 01:44:41;;;;;;;9.93;4.72;;;;;;;23.70;57.54;100236.28;5089353;28;20035;-59
2020/12/22 01:47:06;;;;;;;10.65;4.47;;;;;;;23.69;57.63;100232.78;5093888;28;20031;-59
2020/12/22 01:49:31;;;;;;;8.65;4.30;;;;;;;23.68;57.63;100238.16;5059353;28;20035;-59
2020/12/22 01:51:57;;;;;;;9.68;4.78;;;;;;;23.67;57.58;100228.44;5075998;28;20023;-59
2020/12/22 01:54:23;;;;;;;9.45;4.30;;;;;;;23.67;57.77;100228.44;5093952;28;20413;-59
2020/12/22 01:56:49;;;;;;;8.95;4.45;;;;;;;23.66;57.60;100222.25;5093505;28;20024;-59
2020/12/22 01:59:14;;;;;;;8.30;4.45;;;;;;;23.66;57.57;100216.94;5093515;28;20039;-59
2020/12/22 02:01:40;;;;;;;7.75;4.28;;;;;;;23.65;57.47;100215.22;5094142;28;20039;-59
2020/12/22 02:04:06;;;;;;;9.07;4.18;;;;;;;23.64;57.40;100213.47;5093420;28;20028;-59
2020/12/22 02:06:32;;;;;;;8.40;4.28;;;;;;;23.64;57.67;100220.59;5091466;28;20031;-59
2020/12/22 02:08:58;;;;;;;8.40;4.28;;;;;;;23.64;57.60;100210.81;5093901;28;20034;-59
2020/12/22 02:11:27;;;;;;;11.60;4.70;;;;;;;23.62;57.68;100215.34;5093706;28;20035;-59
2020/12/22 02:13:53;;;;;;;8.50;4.18;;;;;;;23.63;57.72;100211.72;5092156;28;20036;-59
2020/12/22 02:16:19;;;;;;;7.88;4.20;;;;;;;23.62;57.61;100207.38;5107349;28;20086;-59
2020/12/22 02:18:45;;;;;;;10.13;4.32;;;;;;;23.62;57.37;100201.19;5091747;28;20024;-60
2020/12/22 02:21:10;;;;;;;10.18;4.70;;;;;;;23.62;57.56;100207.38;5091973;28;20016;-59
2020/12/22 02:23:36;;;;;;;8.68;4.13;;;;;;;23.61;57.55;100202.97;5091889;28;20027;-59
2020/12/22 02:26:01;;;;;;;8.40;4.55;;;;;;;23.60;57.45;100203.91;5091581;28;20031;-59
2020/12/22 02:28:27;;;;;;;8.52;4.40;;;;;;;23.59;57.63;100204.81;5090781;28;20031;-59
2020/12/22 02:30:52;;;;;;;8.77;4.30;;;;;;;23.59;57.52;100203.06;5093300;28;20020;-59
2020/12/22 02:33:18;;;;;;;8.13;4.30;;;;;;;23.57;57.57;100196.94;5092922;28;20032;-59
2020/12/22 02:35:43;;;;;;;8.50;4.43;;;;;;;23.59;57.61;100199.50;5093010;28;20027;-59
2020/12/22 02:38:08;;;;;;;8.45;4.05;;;;;;;23.58;57.74;100192.47;5092680;28;20020;-59
2020/12/22 02:40:34;;;;;;;8.70;4.07;;;;;;;23.56;57.53;100194.34;5092603;28;20063;-59
2020/12/22 02:43:07;;;;;;;8.63;4.68;;;;;;;23.57;57.53;100193.38;5093050;28;20070;-59
2020/12/22 02:45:33;;;;;;;8.95;4.20;;;;;;;23.57;57.67;100185.41;5075130;28;20024;-59
2020/12/22 02:47:58;;;;;;;7.32;4.22;;;;;;;23.55;57.49;100176.63;5092829;28;20386;-59
2020/12/22 02:50:23;;;;;;;10.15;4.68;;;;;;;23.56;57.59;100178.38;5092844;28;20478;-59
2020/12/22 02:52:49;;;;;;;8.82;4.45;;;;;;;23.54;57.47;100164.28;5092902;28;20046;-59
2020/12/22 02:55:14;;;;;;;8.43;4.40;;;;;;;23.55;57.53;100166.00;5092933;28;20498;-59
2020/12/22 02:57:40;;;;;;;9.32;4.63;;;;;;;23.53;57.53;100163.41;5092330;28;20020;-59
2020/12/22 03:00:05;;;;;;;8.48;4.65;;;;;;;23.53;57.49;100160.75;5092679;28;20032;-59
2020/12/22 03:02:30;;;;;;;8.25;4.13;;;;;;;23.53;57.62;100162.53;5041045;28;20024;-59
2020/12/22 03:04:56;;;;;;;9.18;4.30;;;;;;;23.53;57.71;100154.56;5092871;28;20035;-59
2020/12/22 03:07:21;;;;;;;7.85;4.30;;;;;;;23.51;57.56;100159.94;5092601;28;20044;-59
2020/12/22 03:09:47;;;;;;;8.82;4.65;;;;;;;23.53;57.48;100157.22;5092811;28;20027;-59
2020/12/22 03:12:12;;;;;;;8.18;4.35;;;;;;;23.52;57.58;100160.84;5093670;28;20032;-59
2020/12/22 03:14:37;;;;;;;9.10;4.50;;;;;;;23.52;57.57;100168.81;5105240;28;20032;-59
2020/12/22 03:17:03;;;;;;;9.07;4.78;;;;;;;23.51;57.73;100162.59;5092199;28;20034;-59
2020/12/22 03:19:28;;;;;;;8.23;4.13;;;;;;;23.51;57.65;100153.78;5092476;28;20020;-60
2020/12/22 03:21:54;;;;;;;8.23;4.50;;;;;;;23.51;57.71;100167.06;5091767;28;20093;-59
2020/12/22 03:24:19;;;;;;;8.95;4.45;;;;;;;23.51;57.67;100169.72;5092007;28;20382;-59
2020/12/22 03:26:45;;;;;;;9.45;4.30;;;;;;;23.50;57.59;100176.00;5092167;28;20044;-59
2020/12/22 03:29:10;;;;;;;7.47;4.00;;;;;;;23.50;57.69;100173.34;5091893;28;20035;-59
2020/12/22 03:31:35;;;;;;;9.18;4.45;;;;;;;23.49;57.72;100166.28;5092322;28;20032;-59
2020/12/22 03:34:01;;;;;;;8.13;4.20;;;;;;;23.49;57.66;100164.47;5091695;28;20058;-59
2020/12/22 03:36:26;;;;;;;8.27;4.10;;;;;;;23.48;57.60;100156.59;5092032;28;20036;-59
2020/12/22 03:38:52;;;;;;;7.72;4.03;;;;;;;23.48;57.87;100153.94;5092106;28;20028;-59
2020/12/22 03:41:17;;;;;;;8.05;4.13;;;;;;;23.48;57.67;100153.94;5091904;28;20039;-59
2020/12/22 03:43:42;;;;;;;7.90;4.20;;;;;;;23.48;57.74;100153.94;5092522;28;20032;-59
2020/12/22 03:46:08;;;;;;;7.97;3.97;;;;;;;23.47;57.54;100152.19;5091970;28;20032;-59
2020/12/22 03:48:33;;;;;;;7.10;4.00;;;;;;;23.48;57.27;100151.25;5092070;28;20428;-59
2020/12/22 03:50:59;;;;;;;7.85;4.10;;;;;;;23.47;57.69;100153.03;5092128;28;20050;-59
2020/12/22 03:53:24;;;;;;;8.35;4.15;;;;;;;23.47;57.60;100152.19;5091834;28;20532;-59
2020/12/22 03:55:50;;;;;;;8.30;3.80;;;;;;;23.46;57.77;100155.75;5073614;28;20024;-59
2020/12/22 03:58:15;;;;;;;8.10;4.05;;;;;;;23.47;57.58;100152.19;5092183;28;20032;-59
2020/12/22 04:00:41;;;;;;;8.35;4.07;;;;;;;23.46;57.71;100150.44;5095828;28;20020;-59
2020/12/22 04:03:06;;;;;;;7.47;4.13;;;;;;;23.45;57.70;100149.59;5092153;28;20081;-59
2020/12/22 04:05:31;;;;;;;8.77;4.07;;;;;;;23.44;57.72;100145.22;5091870;28;20032;-59
2020/12/22 04:07:57;;;;;;;9.90;4.32;;;;;;;23.45;57.83;100152.25;5091631;28;20024;-59
2020/12/22 04:10:22;;;;;;;9.43;4.47;;;;;;;23.45;57.60;100146.06;5092586;28;20120;-59
2020/12/22 04:12:48;;;;;;;7.43;3.92;;;;;;;23.44;57.82;100153.19;5091963;28;20036;-59
2020/12/22 04:15:13;;;;;;;8.05;4.30;;;;;;;23.44;57.85;100157.63;5092009;28;20085;-59
2020/12/22 04:17:41;;;;;;;8.13;4.30;;;;;;;23.44;57.61;100161.16;5091633;28;20024;-59
2020/12/22 04:20:06;;;;;;;8.20;4.25;;;;;;;23.44;57.86;100155.84;5091431;28;20024;-59
2020/12/22 04:22:32;;;;;;;7.35;4.13;;;;;;;23.44;57.75;100152.31;5091211;28;20035;-59
2020/12/22 04:24:57;;;;;;;7.88;4.30;;;;;;;23.43;57.72;100150.59;5091143;28;20024;-59
2020/12/22 04:27:22;;;;;;;8.18;3.95;;;;;;;23.43;57.64;100150.59;5091587;28;20039;-59
2020/12/22 04:29:48;;;;;;;8.07;4.30;;;;;;;23.43;57.78;100153.25;5095707;28;20028;-59
2020/12/22 04:32:13;;;;;;;8.23;4.20;;;;;;;23.42;57.75;100144.41;5095318;28;20032;-60
2020/12/22 04:34:39;;;;;;;7.55;3.88;;;;;;;23.43;57.70;100158.56;5077166;28;20035;-59
2020/12/22 04:37:04;;;;;;;7.45;4.15;;;;;;;23.43;57.66;100162.09;5095267;28;20024;-59
2020/12/22 04:39:29;;;;;;;8.13;4.10;;;;;;;23.43;57.69;100161.22;5095186;28;20035;-59
2020/12/22 04:41:55;;;;;;;9.35;4.35;;;;;;;23.43;57.74;100154.09;5077173;28;20052;-59
2020/12/22 04:44:20;;;;;;;8.57;4.25;;;;;;;23.44;57.61;100152.31;5077165;28;20028;-59
2020/12/22 04:46:50;;;;;;;8.13;4.03;;;;;;;23.44;57.82;100158.50;5094630;28;20024;-59
2020/12/22 04:49:15;;;;;;;8.30;3.97;;;;;;;23.46;57.54;100150.44;5095198;28;20039;-59
2020/12/22 04:51:41;;;;;;;7.00;3.90;;;;;;;23.45;57.80;100144.25;5079952;28;20027;-59
2020/12/22 04:54:07;;;;;;;7.43;4.15;;;;;;;23.45;57.68;100148.72;5094397;28;20031;-59
2020/12/22 04:56:32;;;;;;;6.90;3.80;;;;;;;23.46;57.78;100145.13;5094977;28;20028;-59
2020/12/22 04:58:58;;;;;;;7.60;4.43;;;;;;;23.45;57.77;100128.31;5095274;28;20028;-59
2020/12/22 05:01:23;;;;;;;7.82;3.80;;;;;;;23.45;57.79;100120.31;5095005;28;20028;-59
2020/12/22 05:03:49;;;;;;;7.03;3.70;;;;;;;23.46;57.80;100118.53;5076801;28;20024;-59
2020/12/22 05:06:14;;;;;;;7.85;4.22;;;;;;;23.47;57.84;100114.94;5094573;28;20024;-59
2020/12/22 05:08:40;;;;;;;7.88;4.38;;;;;;;23.47;57.69;100110.47;5094861;28;20027;-59
2020/12/22 05:11:05;;;;;;;8.40;4.22;;;;;;;23.46;57.91;100102.56;5094694;28;20036;-59
2020/12/22 05:13:33;;;;;;;8.43;4.20;;;;;;;23.47;57.94;100099.84;5093753;28;20028;-59
2020/12/22 05:15:58;;;;;;;7.13;3.83;;;;;;;23.48;57.80;100092.75;5094095;28;20032;-59
2020/12/22 05:18:24;;;;;;;7.63;4.00;;;;;;;23.48;57.63;100100.72;5094188;28;20028;-59
2020/12/22 05:20:50;;;;;;;7.20;4.10;;;;;;;23.48;57.71;100103.41;5094814;28;20035;-59
2020/12/22 05:23:17;;;;;;;7.70;3.88;;;;;;;23.47;57.69;100107.81;5094277;28;20035;-59
2020/12/22 05:25:43;;;;;;;7.50;4.13;;;;;;;23.47;57.72;100099.84;5094263;28;20113;-59
2020/12/22 05:28:09;;;;;;;8.10;4.00;;;;;;;23.47;57.66;100099.00;5094520;28;20036;-59
2020/12/22 05:30:37;;;;;;;9.02;4.20;;;;;;;23.49;57.68;100097.13;5094592;28;20031;-59
2020/12/22 05:33:03;;;;;;;7.38;4.18;;;;;;;23.48;57.78;100100.72;5094665;28;20050;-59
2020/12/22 05:35:28;;;;;;;7.95;4.13;;;;;;;23.47;57.76;100094.53;5094187;28;20099;-59
2020/12/22 05:37:53;;;;;;;6.47;3.97;;;;;;;23.49;57.91;100083.81;5059560;28;20063;-59
2020/12/22 05:40:20;;;;;;;7.82;4.03;;;;;;;23.49;57.84;100097.13;5059559;28;20408;-59
2020/12/22 05:42:46;;;;;;;7.25;3.70;;;;;;;23.48;58.01;100100.72;5094217;28;20135;-60
2020/12/22 05:45:11;;;;;;;7.38;4.03;;;;;;;23.48;57.86;100101.59;5094007;28;20028;-59
2020/12/22 05:47:37;;;;;;;8.18;3.97;;;;;;;23.49;57.96;100107.75;5094232;28;20024;-59
2020/12/22 05:50:02;;;;;;;7.70;3.97;;;;;;;23.49;57.68;100107.75;5094230;28;20024;-59
2020/12/22 05:52:28;;;;;;;7.47;4.10;;;;;;;23.49;57.58;100113.09;5093938;28;20459;-59
2020/12/22 05:54:55;;;;;;;6.93;3.70;;;;;;;23.48;57.84;100109.56;5093587;28;20490;-59
2020/12/22 05:57:21;;;;;;;6.45;3.72;;;;;;;23.49;57.78;100100.63;5093496;28;20493;-59
2020/12/22 05:59:47;;;;;;;7.47;3.80;;;;;;;23.49;57.53;100102.44;5093477;28;20032;-59
2020/12/22 06:02:25;;;;;;;7.60;3.83;;;;;;;23.49;57.80;100105.97;5093909;28;20032;-59
2020/12/22 06:04:54;;;;;;;6.05;3.40;;;;;;;23.49;57.68;100099.78;5094142;28;20181;-59
2020/12/22 06:07:20;;;;;;;7.38;4.03;;;;;;;23.48;57.59;100090.94;5093474;28;20055;-59
2020/12/22 06:09:45;;;;;;;7.18;3.78;;;;;;;23.49;57.64;100091.81;5093397;28;20074;-59
2020/12/22 06:12:11;;;;;;;7.53;3.80;;;;;;;23.49;57.59;100102.44;5092992;28;20020;-59
2020/12/22 06:14:36;;;;;;;7.05;3.80;;;;;;;23.49;57.72;100099.78;5093909;28;20027;-60
2020/12/22 06:17:05;;;;;;;7.18;3.90;;;;;;;23.50;57.59;100110.34;5058273;28;20020;-59
2020/12/22 06:19:34;;;;;;;7.22;3.88;;;;;;;23.49;57.54;100105.97;5093762;28;20428;-59
2020/12/22 06:22:00;;;;;;;7.25;3.78;;;;;;;23.49;57.65;100099.78;5074778;28;20027;-59
2020/12/22 06:24:26;;;;;;;8.82;4.15;;;;;;;23.49;57.54;100097.13;5093132;28;20024;-59
2020/12/22 06:27:05;;;;;;;6.35;3.60;;;;;;;23.49;57.74;100103.28;5093172;28;20065;-59
2020/12/22 06:29:32;;;;;;;6.05;3.47;;;;;;;23.49;57.60;100090.00;5093333;28;20026;-59
2020/12/22 06:32:23;;;;;;;8.60;4.00;;;;;;;23.49;57.72;100076.69;5093632;28;20028;-59
2020/12/22 06:34:50;;;;;;;8.10;4.28;;;;;;;23.49;57.82;100081.16;5092913;28;20047;-59
2020/12/22 06:37:15;;;;;;;6.40;3.63;;;;;;;23.49;57.64;100091.81;5093097;28;20034;-60
2020/12/22 06:39:44;;;;;;;6.88;3.90;;;;;;;23.50;57.65;100096.19;5093155;28;20032;-59
2020/12/22 06:42:28;;;;;;;7.40;4.05;;;;;;;23.49;57.64;100105.09;5093081;28;20402;-60
2020/12/22 06:44:53;;;;;;;7.50;3.72;;;;;;;23.50;57.47;100114.81;5093242;28;20062;-59
2020/12/22 06:47:19;;;;;;;7.50;3.85;;;;;;;23.49;57.63;100113.94;5092703;28;20032;-59
2020/12/22 06:49:53;;;;;;;7.10;3.80;;;;;;;23.49;57.80;100103.28;5057781;28;20085;-59
2020/12/22 06:52:38;;;;;;;7.18;3.65;;;;;;;23.49;57.66;100108.63;5092030;28;20039;-59
2020/12/22 06:55:07;;;;;;;7.65;3.92;;;;;;;23.50;57.86;100110.34;5092737;28;20028;-60
2020/12/22 06:57:49;;;;;;;7.78;3.88;;;;;;;23.49;57.88;100105.97;5075603;28;20040;-59
2020/12/22 07:00:26;;;;;;;6.05;3.60;;;;;;;23.50;57.80;100096.19;5092990;28;20103;-59
2020/12/22 07:02:52;;;;;;;7.25;4.00;;;;;;;23.50;57.62;100085.56;5092803;28;20039;-59
2020/12/22 07:05:34;;;;;;;7.68;3.90;;;;;;;23.50;57.74;100093.53;5074740;28;20385;-59
2020/12/22 07:08:00;;;;;;;6.70;3.63;;;;;;;23.50;57.59;100109.50;5093067;28;20027;-59
2020/12/22 07:10:28;;;;;;;8.43;4.10;;;;;;;23.49;57.53;100107.75;5074430;28;20035;-59
2020/12/22 07:12:58;;;;;;;6.63;4.00;;;;;;;23.49;57.77;100095.31;5100590;28;20120;-59
2020/12/22 07:17:39;;;;;;;9.90;4.28;;;;;;;23.49;57.69;100087.34;5089656;27;20696;-60
2020/12/22 07:20:05;;;;;;;11.68;4.30;;;;;;;23.49;57.54;100084.69;5042203;28;20067;-67
2020/12/22 07:22:30;;;;;;;11.05;4.20;;;;;;;23.49;57.74;100082.00;5059706;28;20032;-60
2020/12/22 07:24:56;;;;;;;9.75;3.80;;;;;;;23.50;57.57;100090.88;5081734;28;20020;-76
2020/12/22 07:27:21;;;;;;;7.85;3.95;;;;;;;23.50;57.85;100093.53;5077319;28;20032;-77
2020/12/22 07:29:47;;;;;;;8.50;3.63;;;;;;;23.50;57.77;100088.22;5089849;28;20020;-78
2020/12/22 07:32:12;;;;;;;9.00;3.60;;;;;;;23.51;57.87;100096.09;5085417;28;20087;-62
2020/12/22 07:34:39;;;;;;;12.70;4.30;;;;;;;23.51;57.96;100100.56;5080853;28;20032;-61
2020/12/22 07:37:07;;;;;;;7.63;3.70;;;;;;;23.52;57.68;100091.69;5079282;28;20039;-61
2020/12/22 07:39:33;;;;;;;10.55;4.00;;;;;;;23.52;57.73;100092.53;5077640;28;20525;-61
2020/12/22 07:42:19;;;;;;;10.38;3.58;;;;;;;23.52;57.62;100083.69;5069241;28;20033;-61
2020/12/22 07:44:46;;;;;;;9.52;4.30;;;;;;;23.52;57.50;100087.22;5065769;28;20024;-62
2020/12/22 07:47:11;;;;;;;9.73;3.80;;;;;;;23.53;57.59;100088.06;5078554;28;20032;-62
2020/12/22 07:49:37;;;;;;;8.13;3.70;;;;;;;23.53;57.73;100080.94;5084166;28;20154;-66
2020/12/22 07:52:03;;;;;;;10.52;4.35;;;;;;;23.54;57.58;100065.88;5051228;28;20056;-61
2020/12/22 07:54:28;;;;;;;7.65;3.92;;;;;;;23.54;57.53;100068.53;5062536;28;20024;-72
2020/12/22 07:56:58;;;;;;;7.40;3.75;;;;;;;23.54;57.82;100069.38;5054017;28;20449;-63
2020/12/22 07:59:23;;;;;;;12.25;3.95;;;;;;;23.54;57.88;100055.22;5056318;28;20028;-72
2020/12/22 08:01:50;;;;;;;8.35;4.25;;;;;;;23.56;58.30;100066.66;5063561;28;20017;-72
2020/12/22 08:04:20;;;;;;;9.95;4.25;;;;;;;23.56;57.92;100062.19;5031260;28;20475;-69
2020/12/22 08:06:55;;;;;;;9.63;4.18;;;;;;;23.57;58.02;100053.28;5040579;28;20021;-61
2020/12/22 08:09:25;;;;;;;11.48;4.22;;;;;;;23.58;57.93;100054.16;5070679;28;20423;-69
2020/12/22 08:11:52;;;;;;;8.38;3.80;;;;;;;23.57;58.11;100053.28;5069603;28;20089;-69
2020/12/22 08:14:17;;;;;;;9.50;4.38;;;;;;;23.59;57.87;100055.84;5049361;28;20079;-61
2020/12/22 08:16:43;;;;;;;10.73;4.30;;;;;;;23.59;57.95;100055.84;5070121;28;20049;-63
2020/12/22 08:19:08;;;;;;;10.63;4.35;;;;;;;23.59;58.00;100059.41;5035688;28;20484;-64
2020/12/22 08:21:34;;;;;;;9.80;3.97;;;;;;;23.60;58.14;100052.28;5076678;28;20028;-65
2020/12/22 08:23:59;;;;;;;10.63;4.30;;;;;;;23.60;58.26;100054.94;5045922;28;20041;-63
2020/12/22 08:26:25;;;;;;;9.05;4.63;;;;;;;23.61;58.12;100050.47;5050581;28;20031;-66
2020/12/22 08:29:01;;;;;;;11.73;4.20;;;;;;;23.63;58.32;100045.94;5056038;28;20025;-71
2020/12/22 08:31:26;;;;;;;11.75;4.25;;;;;;;23.63;58.74;100046.78;5020834;28;20543;-66
2020/12/22 08:33:55;;;;;;;16.23;4.75;;;;;;;23.64;58.63;100053.84;5055221;28;20033;-67
2020/12/22 08:36:21;;;;;;;11.98;4.45;;;;;;;23.64;58.68;100048.53;5044544;28;20459;-66
2020/12/22 08:38:47;;;;;;;9.85;4.20;;;;;;;23.66;58.71;100053.78;5060990;28;20032;-68
2020/12/22 08:41:21;;;;;;;15.32;4.22;;;;;;;23.66;58.83;100057.31;5050143;28;20113;-69
2020/12/22 08:43:52;;;;;;;14.15;4.55;;;;;;;23.67;58.83;100056.38;5020609;28;20426;-67
2020/12/22 08:46:19;;;;;;;11.43;4.45;;;;;;;23.68;58.74;100054.56;5046167;28;20488;-64
2020/12/22 08:48:44;;;;;;;10.95;4.13;;;;;;;23.68;58.88;100055.44;5034717;28;20029;-63
2020/12/22 08:51:10;;;;;;;11.07;4.53;;;;;;;23.67;58.29;100053.72;5070848;28;20017;-64
2020/12/22 08:53:36;;;;;;;10.55;4.43;;;;;;;23.68;58.13;100049.25;5037514;28;20039;-74
2020/12/22 08:56:08;;;;;;;13.45;5.20;;;;;;;23.65;56.84;100050.28;5059982;28;20028;-68
2020/12/22 08:58:33;;;;;;;14.38;5.15;;;;;;;23.65;57.68;100046.72;5054525;28;20025;-62
2020/12/22 09:01:00;;;;;;;11.82;5.68;;;;;;;23.64;57.58;100037.88;5036085;28;20025;-63
2020/12/22 09:03:27;;;;;;;26.60;6.13;;;;;;;23.64;57.67;100042.34;5037115;28;20025;-66
2020/12/22 09:05:52;;;;;;;14.77;6.50;;;;;;;23.63;57.26;100045.94;5036737;28;20021;-66
2020/12/22 09:08:18;;;;;;;12.98;5.72;;;;;;;23.63;57.42;100048.59;5054247;28;20075;-64
2020/12/22 09:10:47;;;;;;;18.40;6.38;;;;;;;23.63;57.29;100052.13;5054422;28;20037;-73
2020/12/22 09:13:16;;;;;;;13.80;5.82;;;;;;;23.65;57.43;100046.72;5054416;28;20370;-73
2020/12/22 09:15:52;;;;;;;16.63;5.85;;;;;;;23.65;57.38;100036.97;5035369;28;20041;-63
2020/12/22 09:18:18;;;;;;;14.55;5.90;;;;;;;23.64;57.41;100032.56;5036414;28;20029;-68
2020/12/22 09:20:43;;;;;;;15.93;5.45;;;;;;;23.66;57.53;100033.34;5053298;28;20031;-69
2020/12/22 09:23:09;;;;;;;24.70;6.07;;;;;;;23.65;57.18;100029.00;5034679;28;20033;-61
2020/12/22 09:25:34;;;;;;;17.08;5.72;;;;;;;23.66;57.63;100024.53;5045744;28;20032;-61
2020/12/22 09:27:59;;;;;;;25.20;6.00;;;;;;;23.65;57.36;100029.00;5036115;28;20040;-60
2020/12/22 09:30:26;;;;;;;16.35;5.82;;;;;;;23.65;57.29;100018.34;5052979;28;20021;-60
2020/12/22 09:32:51;;;;;;;18.15;5.90;;;;;;;23.66;57.27;100017.41;5052070;28;20076;-68
2020/12/22 09:35:18;;;;;;;18.05;5.30;;;;;;;23.66;57.18;100006.75;5042358;28;20021;-64
2020/12/22 09:37:45;;;;;;;21.15;5.38;;;;;;;23.66;57.45;100012.06;5053060;28;20029;-62
2020/12/22 09:40:10;;;;;;;14.05;5.32;;;;;;;23.67;57.25;99997.84;5033062;28;20372;-67
2020/12/22 09:42:36;;;;;;;15.40;5.57;;;;;;;23.67;57.28;99992.53;5001445;28;20032;-66
2020/12/22 09:45:01;;;;;;;14.25;4.97;;;;;;;23.67;57.34;99989.00;5041076;28;20480;-65
2020/12/22 09:47:27;;;;;;;22.63;5.38;;;;;;;23.68;57.12;99980.09;5046191;28;20717;-61
2020/12/22 09:49:52;;;;;;;13.63;5.00;;;;;;;23.69;57.28;99984.44;5055022;28;20395;-63
2020/12/22 09:52:17;;;;;;;16.75;4.97;;;;;;;23.69;57.23;99973.81;5055844;28;20055;-70
2020/12/22 09:54:43;;;;;;;13.80;5.05;;;;;;;23.69;57.20;99977.34;5058737;28;20025;-68
2020/12/22 09:57:08;;;;;;;12.32;4.80;;;;;;;23.69;57.16;99972.03;5046900;28;20032;-68
2020/12/22 09:59:34;;;;;;;13.75;5.40;;;;;;;23.70;57.19;99964.91;5044624;28;20444;-69
2020/12/22 10:01:59;;;;;;;15.77;4.60;;;;;;;23.69;57.16;99956.06;5051888;28;20033;-68
2020/12/22 10:04:25;;;;;;;12.20;4.70;;;;;;;23.69;57.30;99950.75;5054416;28;20019;-67
2020/12/22 10:06:50;;;;;;;12.02;4.93;;;;;;;23.69;57.15;99953.41;5045612;28;20387;-67
2020/12/22 10:09:16;;;;;;;12.02;4.90;;;;;;;23.69;57.39;99956.06;5014348;28;20025;-67
2020/12/22 10:11:42;;;;;;;13.00;4.70;;;;;;;23.69;57.39;99945.44;5034339;28;20029;-62
2020/12/22 10:14:07;;;;;;;12.00;4.75;;;;;;;23.70;57.32;99946.28;5054149;28;20024;-61
2020/12/22 10:16:35;;;;;;;14.63;5.10;;;;;;;23.69;57.20;99937.44;5065241;28;20053;-66
2020/12/22 10:19:01;;;;;;;12.35;5.07;;;;;;;23.70;57.21;99936.50;5057212;28;20025;-59
2020/12/22 10:21:26;;;;;;;12.43;4.60;;;;;;;23.70;57.33;99936.50;5065952;28;20040;-78
2020/12/22 10:23:52;;;;;;;12.68;5.00;;;;;;;23.70;57.42;99933.84;5053943;28;20029;-66
2020/12/22 10:26:19;;;;;;;14.93;4.57;;;;;;;23.70;57.70;99933.84;5056152;28;20020;-66
2020/12/22 10:28:45;;;;;;;12.90;4.85;;;;;;;23.70;57.32;99925.84;5027416;28;20031;-78
2020/12/22 10:31:11;;;;;;;13.07;5.35;;;;;;;23.70;57.45;99912.56;5060261;28;20033;-63
2020/12/22 10:33:37;;;;;;;13.18;4.80;;;;;;;23.72;57.39;99921.31;5049169;28;20024;-67
2020/12/22 10:36:03;;;;;;;13.90;4.80;;;;;;;23.71;57.48;99911.63;5053248;28;20025;-67
2020/12/22 10:38:30;;;;;;;11.57;4.40;;;;;;;23.70;57.40;99899.25;5058533;28;20384;-67
2020/12/22 10:40:56;;;;;;;11.32;4.68;;;;;;;23.72;57.27;99902.69;5062226;28;20025;-74
2020/12/22 10:43:21;;;;;;;15.52;4.80;;;;;;;23.72;57.55;99907.16;5064266;28;20070;-79
2020/12/22 10:45:47;;;;;;;14.07;4.50;;;;;;;23.72;57.65;99897.38;5054793;28;20410;-80
2020/12/22 10:48:13;;;;;;;11.00;4.63;;;;;;;23.72;57.47;99892.06;5026441;28;20025;-68
2020/12/22 10:50:38;;;;;;;12.90;4.70;;;;;;;23.72;57.45;99900.03;5052428;28;20108;-64
2020/12/22 10:53:05;;;;;;;11.10;4.25;;;;;;;23.73;57.61;99892.91;5047555;28;20021;-66
2020/12/22 10:55:30;;;;;;;16.58;4.65;;;;;;;23.73;57.53;99890.25;5050098;28;20044;-63
2020/12/22 10:57:56;;;;;;;8.70;4.30;;;;;;;23.72;57.68;99892.06;5047211;28;20607;-69
2020/12/22 11:00:21;;;;;;;11.05;4.55;;;;;;;23.72;57.56;99893.84;5028043;28;20382;-61
2020/12/22 11:02:49;;;;;;;17.92;4.65;;;;;;;23.72;57.41;99884.06;5053404;28;20025;-61
2020/12/22 11:05:15;;;;;;;16.55;5.20;;;;;;;23.73;57.44;99883.16;5052168;28;20052;-60
2020/12/22 11:10:06;;;;;;;13.68;4.75;;;;;;;23.71;57.29;99884.13;5064083;28;20497;-66
2020/12/22 11:12:31;;;;;;;14.70;5.10;;;;;;;23.72;57.54;99881.41;5052991;28;20037;-68
2020/12/22 11:14:57;;;;;;;12.77;5.40;;;;;;;23.71;57.09;99871.72;5041450;28;20024;-70
2020/12/22 11:17:22;;;;;;;14.85;4.95;;;;;;;23.71;57.19;99868.19;5051310;28;20567;-68
2020/12/22 11:19:48;;;;;;;13.50;5.47;;;;;;;23.70;57.12;99867.31;5072054;28;20020;-67
2020/12/22 11:22:13;;;;;;;15.75;5.00;;;;;;;23.70;57.26;99867.31;5054710;28;20360;-63
2020/12/22 11:24:38;;;;;;;16.55;5.63;;;;;;;23.68;57.16;99874.53;5033674;28;20052;-65
2020/12/22 11:27:04;;;;;;;14.75;5.65;;;;;;;23.69;57.27;99872.72;5033673;28;20040;-62